sensor_id;sensor_type;location;lat;lon;timestamp;temperature;humidity
7388;DHT22;3735;50.136;11.062;2023-05-10T00:00:05;14.30;99.90
7388;DHT22;3735;50.136;11.062;2023-05-10T00:02:31;14.30;99.90
7388;DHT22;3735;50.136;11.062;2023-05-10T00:04:57;14.30;99.90
7388;DHT22;3735;50.136;11.062;2023-05-10T00:07:23;14.30;99.90
7388;DHT22;3735;50.136;11.062;2023-05-10T00:09:48;14.30;99.90
7388;DHT22;3735;50.136;11.062;2023-05-10T00:12:14;14.20;99.90
7388;DHT22;3735;50.136;11.062;2023-05-10T00:14:40;14.20;99.90
7388;DHT22;3735;50.136;11.062;2023-05-10T00:17:06;14.10;99.90
7388;DHT22;3735;50.136;11.062;2023-05-10T00:19:31;14.20;99.90
7388;DHT22;3735;50.136;11.062;2023-05-10T00:21:57;14.20;99.90
7388;DHT22;3735;50.136;11.062;2023-05-10T00:24:23;14.20;99.90
7388;DHT22;3735;50.136;11.062;2023-05-10T00:26:48;14.20;99.90
7388;DHT22;3735;50.136;11.062;2023-05-10T00:29:14;14.30;99.90
7388;DHT22;3735;50.136;11.062;2023-05-10T00:31:40;14.30;99.90
7388;DHT22;3735;50.136;11.062;2023-05-10T00:34:06;14.20;99.90
7388;DHT22;3735;50.136;11.062;2023-05-10T00:36:32;14.20;99.90
7388;DHT22;3735;50.136;11.062;2023-05-10T00:38:58;14.10;99.90
7388;DHT22;3735;50.136;11.062;2023-05-10T00:41:24;14.10;99.90
7388;DHT22;3735;50.136;11.062;2023-05-10T00:43:49;14.10;99.90
7388;DHT22;3735;50.136;11.062;2023-05-10T00:46:15;14.00;99.90
7388;DHT22;3735;50.136;11.062;2023-05-10T00:48:42;14.00;99.90
7388;DHT22;3735;50.136;11.062;2023-05-10T00:51:09;14.00;99.90
7388;DHT22;3735;50.136;11.062;2023-05-10T00:53:35;14.10;99.90
7388;DHT22;3735;50.136;11.062;2023-05-10T00:56:01;14.10;99.90
7388;DHT22;3735;50.136;11.062;2023-05-10T00:58:28;14.10;99.90
7388;DHT22;3735;50.136;11.062;2023-05-10T01:00:56;14.20;99.90
7388;DHT22;3735;50.136;11.062;2023-05-10T01:03:24;14.20;99.90
7388;DHT22;3735;50.136;11.062;2023-05-10T01:05:50;14.20;99.90
7388;DHT22;3735;50.136;11.062;2023-05-10T01:08:16;14.30;99.90
7388;DHT22;3735;50.136;11.062;2023-05-10T01:10:42;14.30;99.90
7388;DHT22;3735;50.136;11.062;2023-05-10T01:13:09;14.20;99.90
7388;DHT22;3735;50.136;11.062;2023-05-10T01:15:36;14.30;99.90
7388;DHT22;3735;50.136;11.062;2023-05-10T01:18:04;14.30;99.90
7388;DHT22;3735;50.136;11.062;2023-05-10T01:20:37;14.30;99.90
7388;DHT22;3735;50.136;11.062;2023-05-10T01:23:38;14.30;99.90
7388;DHT22;3735;50.136;11.062;2023-05-10T01:26:40;14.30;99.90
7388;DHT22;3735;50.136;11.062;2023-05-10T01:35:50;14.20;99.90
7388;DHT22;3735;50.136;11.062;2023-05-10T01:38:32;14.20;99.90
7388;DHT22;3735;50.136;11.062;2023-05-10T01:46:50;14.30;99.90
7388;DHT22;3735;50.136;11.062;2023-05-10T01:49:25;14.20;99.90
7388;DHT22;3735;50.136;11.062;2023-05-10T01:51:55;14.20;99.90
7388;DHT22;3735;50.136;11.062;2023-05-10T01:54:27;14.20;99.90
7388;DHT22;3735;50.136;11.062;2023-05-10T01:57:01;14.20;99.90
7388;DHT22;3735;50.136;11.062;2023-05-10T01:59:34;14.10;99.90
7388;DHT22;3735;50.136;11.062;2023-05-10T02:02:07;14.10;99.90
7388;DHT22;3735;50.136;11.062;2023-05-10T02:04:39;14.10;99.90
7388;DHT22;3735;50.136;11.062;2023-05-10T02:07:06;14.10;99.90
7388;DHT22;3735;50.136;11.062;2023-05-10T02:09:34;14.10;99.90
7388;DHT22;3735;50.136;11.062;2023-05-10T02:12:04;14.10;99.90
7388;DHT22;3735;50.136;11.062;2023-05-10T02:14:34;14.20;99.90
7388;DHT22;3735;50.136;11.062;2023-05-10T02:17:03;14.20;99.90
7388;DHT22;3735;50.136;11.062;2023-05-10T02:19:31;14.10;99.90
7388;DHT22;3735;50.136;11.062;2023-05-10T02:21:59;14.10;99.90
7388;DHT22;3735;50.136;11.062;2023-05-10T02:24:27;14.10;99.90
7388;DHT22;3735;50.136;11.062;2023-05-10T02:26:54;14.10;99.90
7388;DHT22;3735;50.136;11.062;2023-05-10T02:29:23;14.00;99.90
7388;DHT22;3735;50.136;11.062;2023-05-10T02:31:54;13.90;99.90
7388;DHT22;3735;50.136;11.062;2023-05-10T02:34:23;13.60;99.90
7388;DHT22;3735;50.136;11.062;2023-05-10T02:36:52;13.40;99.90
7388;DHT22;3735;50.136;11.062;2023-05-10T02:39:19;13.20;99.90
7388;DHT22;3735;50.136;11.062;2023-05-10T02:41:47;13.10;99.90
7388;DHT22;3735;50.136;11.062;2023-05-10T02:44:16;13.10;99.90
7388;DHT22;3735;50.136;11.062;2023-05-10T02:46:44;13.00;99.90
7388;DHT22;3735;50.136;11.062;2023-05-10T02:49:10;12.90;99.90
7388;DHT22;3735;50.136;11.062;2023-05-10T02:51:41;12.90;99.90
7388;DHT22;3735;50.136;11.062;2023-05-10T02:54:18;12.80;99.90
7388;DHT22;3735;50.136;11.062;2023-05-10T02:56:56;12.80;99.90
7388;DHT22;3735;50.136;11.062;2023-05-10T02:59:26;12.80;99.90
7388;DHT22;3735;50.136;11.062;2023-05-10T03:01:52;12.80;99.90
7388;DHT22;3735;50.136;11.062;2023-05-10T03:04:18;12.80;99.90
7388;DHT22;3735;50.136;11.062;2023-05-10T03:06:43;12.90;99.90
7388;DHT22;3735;50.136;11.062;2023-05-10T03:09:10;12.90;99.90
7388;DHT22;3735;50.136;11.062;2023-05-10T03:17:29;12.90;99.90
7388;DHT22;3735;50.136;11.062;2023-05-10T03:20:12;12.90;99.90
7388;DHT22;3735;50.136;11.062;2023-05-10T03:22:59;12.90;99.90
7388;DHT22;3735;50.136;11.062;2023-05-10T03:25:31;12.90;99.90
7388;DHT22;3735;50.136;11.062;2023-05-10T03:27:58;12.90;99.90
7388;DHT22;3735;50.136;11.062;2023-05-10T03:30:26;12.90;99.90
7388;DHT22;3735;50.136;11.062;2023-05-10T03:32:53;12.90;99.90
7388;DHT22;3735;50.136;11.062;2023-05-10T03:35:19;12.90;99.90
7388;DHT22;3735;50.136;11.062;2023-05-10T03:37:45;12.80;99.90
7388;DHT22;3735;50.136;11.062;2023-05-10T03:40:12;12.80;99.90
7388;DHT22;3735;50.136;11.062;2023-05-10T03:42:38;12.80;99.90
7388;DHT22;3735;50.136;11.062;2023-05-10T03:45:05;12.70;99.90
7388;DHT22;3735;50.136;11.062;2023-05-10T03:47:31;12.70;99.90
7388;DHT22;3735;50.136;11.062;2023-05-10T03:49:57;12.60;99.90
7388;DHT22;3735;50.136;11.062;2023-05-10T03:52:23;12.50;99.90
7388;DHT22;3735;50.136;11.062;2023-05-10T03:54:49;12.40;99.90
7388;DHT22;3735;50.136;11.062;2023-05-10T03:57:14;12.30;99.90
7388;DHT22;3735;50.136;11.062;2023-05-10T03:59:40;12.30;99.90
7388;DHT22;3735;50.136;11.062;2023-05-10T04:02:06;12.20;99.90
7388;DHT22;3735;50.136;11.062;2023-05-10T04:04:31;12.20;99.90
7388;DHT22;3735;50.136;11.062;2023-05-10T04:06:57;12.20;99.90
7388;DHT22;3735;50.136;11.062;2023-05-10T04:09:23;12.20;99.90
7388;DHT22;3735;50.136;11.062;2023-05-10T04:11:49;12.20;99.90
7388;DHT22;3735;50.136;11.062;2023-05-10T04:14:15;12.20;99.90
7388;DHT22;3735;50.136;11.062;2023-05-10T04:16:41;12.20;99.90
7388;DHT22;3735;50.136;11.062;2023-05-10T04:19:07;12.20;99.90
7388;DHT22;3735;50.136;11.062;2023-05-10T04:21:33;12.20;99.90
7388;DHT22;3735;50.136;11.062;2023-05-10T04:23:58;12.20;99.90
7388;DHT22;3735;50.136;11.062;2023-05-10T04:26:24;12.20;99.90
7388;DHT22;3735;50.136;11.062;2023-05-10T04:28:50;12.10;99.90
7388;DHT22;3735;50.136;11.062;2023-05-10T04:31:16;12.10;99.90
7388;DHT22;3735;50.136;11.062;2023-05-10T04:33:42;12.10;99.90
7388;DHT22;3735;50.136;11.062;2023-05-10T04:36:08;12.00;99.90
7388;DHT22;3735;50.136;11.062;2023-05-10T04:38:34;12.00;99.90
7388;DHT22;3735;50.136;11.062;2023-05-10T04:41:06;12.00;99.90
7388;DHT22;3735;50.136;11.062;2023-05-10T04:43:34;12.00;99.90
7388;DHT22;3735;50.136;11.062;2023-05-10T04:46:00;12.00;99.90
7388;DHT22;3735;50.136;11.062;2023-05-10T04:48:26;12.00;99.90
7388;DHT22;3735;50.136;11.062;2023-05-10T04:50:52;12.00;99.90
7388;DHT22;3735;50.136;11.062;2023-05-10T04:53:17;12.00;99.90
7388;DHT22;3735;50.136;11.062;2023-05-10T04:55:43;12.00;99.90
7388;DHT22;3735;50.136;11.062;2023-05-10T04:58:09;12.20;99.90
7388;DHT22;3735;50.136;11.062;2023-05-10T05:00:35;12.30;99.90
7388;DHT22;3735;50.136;11.062;2023-05-10T05:03:01;12.40;99.90
7388;DHT22;3735;50.136;11.062;2023-05-10T05:05:26;12.50;99.90
7388;DHT22;3735;50.136;11.062;2023-05-10T05:07:52;12.60;99.90
7388;DHT22;3735;50.136;11.062;2023-05-10T05:10:18;12.70;99.90
7388;DHT22;3735;50.136;11.062;2023-05-10T05:12:43;12.70;99.90
7388;DHT22;3735;50.136;11.062;2023-05-10T05:15:10;12.80;99.90
7388;DHT22;3735;50.136;11.062;2023-05-10T05:17:36;12.80;99.90
7388;DHT22;3735;50.136;11.062;2023-05-10T05:20:02;12.80;99.90
7388;DHT22;3735;50.136;11.062;2023-05-10T05:22:28;12.70;99.90
7388;DHT22;3735;50.136;11.062;2023-05-10T05:24:55;12.80;99.90
7388;DHT22;3735;50.136;11.062;2023-05-10T05:27:22;12.70;99.90
7388;DHT22;3735;50.136;11.062;2023-05-10T05:29:50;12.80;99.90
7388;DHT22;3735;50.136;11.062;2023-05-10T05:32:17;12.80;99.90
7388;DHT22;3735;50.136;11.062;2023-05-10T05:34:46;12.80;99.90
7388;DHT22;3735;50.136;11.062;2023-05-10T05:37:16;12.80;99.90
7388;DHT22;3735;50.136;11.062;2023-05-10T05:39:43;12.70;99.90
7388;DHT22;3735;50.136;11.062;2023-05-10T05:42:10;12.70;99.90
7388;DHT22;3735;50.136;11.062;2023-05-10T05:44:36;12.60;99.90
7388;DHT22;3735;50.136;11.062;2023-05-10T05:47:02;12.70;99.90
7388;DHT22;3735;50.136;11.062;2023-05-10T05:49:28;12.70;99.90
7388;DHT22;3735;50.136;11.062;2023-05-10T05:51:58;12.60;99.90
7388;DHT22;3735;50.136;11.062;2023-05-10T05:54:24;12.60;99.90
7388;DHT22;3735;50.136;11.062;2023-05-10T05:56:49;12.60;99.90
7388;DHT22;3735;50.136;11.062;2023-05-10T05:59:15;12.60;99.90
7388;DHT22;3735;50.136;11.062;2023-05-10T06:01:41;12.60;99.90
7388;DHT22;3735;50.136;11.062;2023-05-10T06:04:07;12.60;99.90
7388;DHT22;3735;50.136;11.062;2023-05-10T06:06:33;12.60;99.90
7388;DHT22;3735;50.136;11.062;2023-05-10T06:08:58;12.60;99.90
7388;DHT22;3735;50.136;11.062;2023-05-10T06:11:24;12.60;99.90
7388;DHT22;3735;50.136;11.062;2023-05-10T06:13:51;12.70;99.90
7388;DHT22;3735;50.136;11.062;2023-05-10T06:16:16;12.80;99.90
7388;DHT22;3735;50.136;11.062;2023-05-10T06:18:43;12.80;99.90
7388;DHT22;3735;50.136;11.062;2023-05-10T06:21:08;13.00;99.90
7388;DHT22;3735;50.136;11.062;2023-05-10T06:23:34;13.00;99.90
7388;DHT22;3735;50.136;11.062;2023-05-10T06:26:01;13.10;99.90
7388;DHT22;3735;50.136;11.062;2023-05-10T06:28:26;13.10;99.90
7388;DHT22;3735;50.136;11.062;2023-05-10T06:30:53;13.10;99.90
7388;DHT22;3735;50.136;11.062;2023-05-10T06:33:18;13.10;99.90
7388;DHT22;3735;50.136;11.062;2023-05-10T06:35:44;13.20;99.90
7388;DHT22;3735;50.136;11.062;2023-05-10T06:38:10;13.20;99.90
7388;DHT22;3735;50.136;11.062;2023-05-10T06:40:36;13.30;99.90
7388;DHT22;3735;50.136;11.062;2023-05-10T06:43:01;13.40;99.90
7388;DHT22;3735;50.136;11.062;2023-05-10T06:45:27;13.50;99.90
7388;DHT22;3735;50.136;11.062;2023-05-10T06:47:53;13.70;99.90
7388;DHT22;3735;50.136;11.062;2023-05-10T06:50:19;13.70;99.90
7388;DHT22;3735;50.136;11.062;2023-05-10T06:52:44;13.90;99.90
7388;DHT22;3735;50.136;11.062;2023-05-10T06:55:10;13.90;99.90
7388;DHT22;3735;50.136;11.062;2023-05-10T06:57:36;13.90;99.90
7388;DHT22;3735;50.136;11.062;2023-05-10T07:00:03;14.00;99.90
7388;DHT22;3735;50.136;11.062;2023-05-10T07:02:30;14.00;99.90
7388;DHT22;3735;50.136;11.062;2023-05-10T07:04:56;14.10;99.90
7388;DHT22;3735;50.136;11.062;2023-05-10T07:07:21;14.20;99.90
7388;DHT22;3735;50.136;11.062;2023-05-10T07:09:47;14.30;99.90
7388;DHT22;3735;50.136;11.062;2023-05-10T07:12:14;14.40;99.90
7388;DHT22;3735;50.136;11.062;2023-05-10T07:14:40;14.50;99.90
7388;DHT22;3735;50.136;11.062;2023-05-10T07:17:05;14.60;99.90
7388;DHT22;3735;50.136;11.062;2023-05-10T07:19:31;14.80;99.90
7388;DHT22;3735;50.136;11.062;2023-05-10T07:21:58;15.10;99.90
7388;DHT22;3735;50.136;11.062;2023-05-10T07:24:24;15.20;99.90
7388;DHT22;3735;50.136;11.062;2023-05-10T07:26:49;15.30;99.90
7388;DHT22;3735;50.136;11.062;2023-05-10T07:29:15;15.40;99.90
7388;DHT22;3735;50.136;11.062;2023-05-10T07:31:41;15.40;99.90
7388;DHT22;3735;50.136;11.062;2023-05-10T07:34:08;15.60;99.90
7388;DHT22;3735;50.136;11.062;2023-05-10T07:36:34;15.90;99.90
7388;DHT22;3735;50.136;11.062;2023-05-10T07:39:00;16.20;99.90
7388;DHT22;3735;50.136;11.062;2023-05-10T07:41:26;16.40;99.90
7388;DHT22;3735;50.136;11.062;2023-05-10T07:43:52;16.50;99.90
7388;DHT22;3735;50.136;11.062;2023-05-10T07:46:18;16.60;99.90
7388;DHT22;3735;50.136;11.062;2023-05-10T07:48:45;16.80;99.90
7388;DHT22;3735;50.136;11.062;2023-05-10T07:51:11;17.00;99.90
7388;DHT22;3735;50.136;11.062;2023-05-10T07:53:37;17.00;99.90
7388;DHT22;3735;50.136;11.062;2023-05-10T07:58:51;16.40;99.90
7388;DHT22;3735;50.136;11.062;2023-05-10T08:01:18;16.20;99.90
7388;DHT22;3735;50.136;11.062;2023-05-10T08:03:43;16.00;99.90
7388;DHT22;3735;50.136;11.062;2023-05-10T08:06:09;16.00;99.90
7388;DHT22;3735;50.136;11.062;2023-05-10T08:08:35;16.00;99.90
7388;DHT22;3735;50.136;11.062;2023-05-10T08:11:01;15.90;99.90
7388;DHT22;3735;50.136;11.062;2023-05-10T08:13:27;15.80;99.90
7388;DHT22;3735;50.136;11.062;2023-05-10T08:15:53;15.70;99.90
7388;DHT22;3735;50.136;11.062;2023-05-10T08:18:19;15.80;99.90
7388;DHT22;3735;50.136;11.062;2023-05-10T08:20:45;15.80;99.90
7388;DHT22;3735;50.136;11.062;2023-05-10T08:23:12;16.00;99.90
7388;DHT22;3735;50.136;11.062;2023-05-10T08:25:38;16.20;99.90
7388;DHT22;3735;50.136;11.062;2023-05-10T08:28:04;16.40;99.90
7388;DHT22;3735;50.136;11.062;2023-05-10T08:30:30;16.60;99.90
7388;DHT22;3735;50.136;11.062;2023-05-10T08:32:56;16.80;99.90
7388;DHT22;3735;50.136;11.062;2023-05-10T08:35:21;17.00;99.90
7388;DHT22;3735;50.136;11.062;2023-05-10T08:37:47;17.50;99.90
7388;DHT22;3735;50.136;11.062;2023-05-10T08:40:13;17.70;99.90
7388;DHT22;3735;50.136;11.062;2023-05-10T08:42:44;18.10;99.90
7388;DHT22;3735;50.136;11.062;2023-05-10T08:45:16;18.40;99.90
7388;DHT22;3735;50.136;11.062;2023-05-10T08:47:44;19.10;99.90
7388;DHT22;3735;50.136;11.062;2023-05-10T08:50:11;19.90;99.90
7388;DHT22;3735;50.136;11.062;2023-05-10T08:52:38;20.60;99.90
7388;DHT22;3735;50.136;11.062;2023-05-10T08:55:06;21.00;99.90
7388;DHT22;3735;50.136;11.062;2023-05-10T08:57:32;21.50;99.90
7388;DHT22;3735;50.136;11.062;2023-05-10T09:00:00;22.20;99.90
7388;DHT22;3735;50.136;11.062;2023-05-10T09:02:26;22.40;99.90
7388;DHT22;3735;50.136;11.062;2023-05-10T09:04:52;22.30;99.90
7388;DHT22;3735;50.136;11.062;2023-05-10T09:07:19;22.00;99.90
7388;DHT22;3735;50.136;11.062;2023-05-10T09:09:46;21.60;99.90
7388;DHT22;3735;50.136;11.062;2023-05-10T09:12:13;21.20;99.90
7388;DHT22;3735;50.136;11.062;2023-05-10T09:14:42;20.40;99.90
7388;DHT22;3735;50.136;11.062;2023-05-10T09:17:09;19.80;99.90
7388;DHT22;3735;50.136;11.062;2023-05-10T09:19:35;19.60;99.90
7388;DHT22;3735;50.136;11.062;2023-05-10T09:22:01;20.10;99.90
7388;DHT22;3735;50.136;11.062;2023-05-10T09:24:30;20.90;99.90
7388;DHT22;3735;50.136;11.062;2023-05-10T09:26:57;20.90;99.90
7388;DHT22;3735;50.136;11.062;2023-05-10T09:29:26;20.50;99.90
7388;DHT22;3735;50.136;11.062;2023-05-10T09:32:04;20.00;99.90
7388;DHT22;3735;50.136;11.062;2023-05-10T09:34:31;19.50;99.90
7388;DHT22;3735;50.136;11.062;2023-05-10T09:36:59;19.40;99.90
7388;DHT22;3735;50.136;11.062;2023-05-10T09:39:36;19.60;99.90
7388;DHT22;3735;50.136;11.062;2023-05-10T09:42:07;20.30;99.90
7388;DHT22;3735;50.136;11.062;2023-05-10T09:44:34;21.00;99.90
7388;DHT22;3735;50.136;11.062;2023-05-10T09:47:02;21.20;99.90
7388;DHT22;3735;50.136;11.062;2023-05-10T09:49:28;21.40;99.90
7388;DHT22;3735;50.136;11.062;2023-05-10T09:52:04;21.40;99.90
7388;DHT22;3735;50.136;11.062;2023-05-10T09:54:32;21.30;99.90
7388;DHT22;3735;50.136;11.062;2023-05-10T09:57:00;21.00;99.90
7388;DHT22;3735;50.136;11.062;2023-05-10T09:59:27;20.50;99.90
7388;DHT22;3735;50.136;11.062;2023-05-10T10:01:58;20.30;99.90
7388;DHT22;3735;50.136;11.062;2023-05-10T10:04:25;20.10;99.90
7388;DHT22;3735;50.136;11.062;2023-05-10T10:07:02;20.00;99.90
7388;DHT22;3735;50.136;11.062;2023-05-10T10:09:29;19.90;99.90
7388;DHT22;3735;50.136;11.062;2023-05-10T10:11:56;20.00;99.90
7388;DHT22;3735;50.136;11.062;2023-05-10T10:14:22;20.00;99.90
7388;DHT22;3735;50.136;11.062;2023-05-10T10:16:52;19.90;99.90
7388;DHT22;3735;50.136;11.062;2023-05-10T10:19:22;19.60;99.90
7388;DHT22;3735;50.136;11.062;2023-05-10T10:21:49;19.20;99.90
7388;DHT22;3735;50.136;11.062;2023-05-10T10:24:15;18.60;99.90
7388;DHT22;3735;50.136;11.062;2023-05-10T10:26:42;17.60;99.90
7388;DHT22;3735;50.136;11.062;2023-05-10T10:35:19;15.50;99.90
7388;DHT22;3735;50.136;11.062;2023-05-10T10:37:46;15.20;99.90
7388;DHT22;3735;50.136;11.062;2023-05-10T10:42:57;15.00;99.90
7388;DHT22;3735;50.136;11.062;2023-05-10T10:45:24;15.00;99.90
7388;DHT22;3735;50.136;11.062;2023-05-10T10:48:20;15.00;99.90
7388;DHT22;3735;50.136;11.062;2023-05-10T10:50:47;15.10;99.90
7388;DHT22;3735;50.136;11.062;2023-05-10T10:53:13;15.20;99.90
7388;DHT22;3735;50.136;11.062;2023-05-10T10:55:46;15.50;99.90
7388;DHT22;3735;50.136;11.062;2023-05-10T10:58:32;15.90;99.90
7388;DHT22;3735;50.136;11.062;2023-05-10T11:01:19;16.40;99.90
7388;DHT22;3735;50.136;11.062;2023-05-10T11:06:33;17.80;99.90
7388;DHT22;3735;50.136;11.062;2023-05-10T11:09:10;18.70;99.90
7388;DHT22;3735;50.136;11.062;2023-05-10T11:11:54;20.10;99.90
7388;DHT22;3735;50.136;11.062;2023-05-10T11:14:21;21.60;99.90
7388;DHT22;3735;50.136;11.062;2023-05-10T11:16:48;22.80;99.90
7388;DHT22;3735;50.136;11.062;2023-05-10T11:19:15;23.50;99.90
7388;DHT22;3735;50.136;11.062;2023-05-10T11:21:48;24.20;99.90
7388;DHT22;3735;50.136;11.062;2023-05-10T11:24:26;24.70;99.90
7388;DHT22;3735;50.136;11.062;2023-05-10T11:26:53;25.10;99.90
7388;DHT22;3735;50.136;11.062;2023-05-10T11:29:19;24.90;99.90
7388;DHT22;3735;50.136;11.062;2023-05-10T11:31:46;24.30;99.90
7388;DHT22;3735;50.136;11.062;2023-05-10T11:34:24;24.00;99.90
7388;DHT22;3735;50.136;11.062;2023-05-10T11:36:54;23.80;99.90
7388;DHT22;3735;50.136;11.062;2023-05-10T11:39:24;23.90;99.90
7388;DHT22;3735;50.136;11.062;2023-05-10T11:41:52;23.60;99.90
7388;DHT22;3735;50.136;11.062;2023-05-10T11:44:18;23.60;99.90
7388;DHT22;3735;50.136;11.062;2023-05-10T11:46:44;23.70;99.90
7388;DHT22;3735;50.136;11.062;2023-05-10T11:49:10;23.60;99.90
7388;DHT22;3735;50.136;11.062;2023-05-10T11:51:37;23.00;99.90
7388;DHT22;3735;50.136;11.062;2023-05-10T11:54:08;21.90;99.90
7388;DHT22;3735;50.136;11.062;2023-05-10T11:56:39;20.00;99.90
7388;DHT22;3735;50.136;11.062;2023-05-10T11:59:06;18.70;99.90
7388;DHT22;3735;50.136;11.062;2023-05-10T12:01:33;17.80;99.90
7388;DHT22;3735;50.136;11.062;2023-05-10T12:04:00;17.20;99.90
7388;DHT22;3735;50.136;11.062;2023-05-10T12:06:32;17.00;99.90
7388;DHT22;3735;50.136;11.062;2023-05-10T12:09:06;16.70;99.90
7388;DHT22;3735;50.136;11.062;2023-05-10T12:11:37;16.50;99.90
7388;DHT22;3735;50.136;11.062;2023-05-10T12:14:05;16.50;99.90
7388;DHT22;3735;50.136;11.062;2023-05-10T12:16:32;16.40;99.90
7388;DHT22;3735;50.136;11.062;2023-05-10T12:18:59;16.30;99.90
7388;DHT22;3735;50.136;11.062;2023-05-10T12:21:28;16.30;99.90
7388;DHT22;3735;50.136;11.062;2023-05-10T12:23:56;16.30;99.90
7388;DHT22;3735;50.136;11.062;2023-05-10T12:26:25;16.50;99.90
7388;DHT22;3735;50.136;11.062;2023-05-10T12:28:55;16.50;99.90
7388;DHT22;3735;50.136;11.062;2023-05-10T12:31:58;16.60;99.90
7388;DHT22;3735;50.136;11.062;2023-05-10T12:36:58;16.80;99.90
7388;DHT22;3735;50.136;11.062;2023-05-10T12:39:24;17.20;99.90
7388;DHT22;3735;50.136;11.062;2023-05-10T12:41:51;17.60;99.90
7388;DHT22;3735;50.136;11.062;2023-05-10T12:44:17;17.70;99.90
7388;DHT22;3735;50.136;11.062;2023-05-10T12:46:43;18.00;99.90
7388;DHT22;3735;50.136;11.062;2023-05-10T12:49:09;18.40;99.90
7388;DHT22;3735;50.136;11.062;2023-05-10T12:51:35;18.80;99.90
7388;DHT22;3735;50.136;11.062;2023-05-10T12:54:02;19.00;99.90
7388;DHT22;3735;50.136;11.062;2023-05-10T12:56:28;19.40;99.90
7388;DHT22;3735;50.136;11.062;2023-05-10T12:58:54;19.90;99.90
7388;DHT22;3735;50.136;11.062;2023-05-10T13:01:19;20.40;99.90
7388;DHT22;3735;50.136;11.062;2023-05-10T13:03:45;20.80;99.90
7388;DHT22;3735;50.136;11.062;2023-05-10T13:06:11;21.10;99.90
7388;DHT22;3735;50.136;11.062;2023-05-10T13:08:38;21.40;99.90
7388;DHT22;3735;50.136;11.062;2023-05-10T13:11:05;22.00;99.90
7388;DHT22;3735;50.136;11.062;2023-05-10T13:13:32;22.20;99.90
7388;DHT22;3735;50.136;11.062;2023-05-10T13:15:58;22.20;99.90
7388;DHT22;3735;50.136;11.062;2023-05-10T13:18:24;22.30;99.90
7388;DHT22;3735;50.136;11.062;2023-05-10T13:20:51;22.30;99.90
7388;DHT22;3735;50.136;11.062;2023-05-10T13:23:17;22.30;99.90
7388;DHT22;3735;50.136;11.062;2023-05-10T13:25:42;22.20;99.90
7388;DHT22;3735;50.136;11.062;2023-05-10T13:28:08;22.30;99.90
7388;DHT22;3735;50.136;11.062;2023-05-10T13:30:34;22.40;99.90
7388;DHT22;3735;50.136;11.062;2023-05-10T13:33:00;22.20;99.90
7388;DHT22;3735;50.136;11.062;2023-05-10T13:35:26;21.70;99.90
7388;DHT22;3735;50.136;11.062;2023-05-10T13:37:51;21.30;99.90
7388;DHT22;3735;50.136;11.062;2023-05-10T13:40:18;20.90;99.90
7388;DHT22;3735;50.136;11.062;2023-05-10T13:42:44;20.50;99.90
7388;DHT22;3735;50.136;11.062;2023-05-10T13:45:10;20.20;99.90
7388;DHT22;3735;50.136;11.062;2023-05-10T13:47:38;19.90;99.90
7388;DHT22;3735;50.136;11.062;2023-05-10T13:50:04;19.90;99.90
7388;DHT22;3735;50.136;11.062;2023-05-10T13:52:30;20.10;99.90
7388;DHT22;3735;50.136;11.062;2023-05-10T13:54:56;20.30;99.90
7388;DHT22;3735;50.136;11.062;2023-05-10T13:57:22;20.50;99.90
7388;DHT22;3735;50.136;11.062;2023-05-10T13:59:49;20.70;99.90
7388;DHT22;3735;50.136;11.062;2023-05-10T14:02:15;20.90;99.90
7388;DHT22;3735;50.136;11.062;2023-05-10T14:04:41;21.20;99.90
7388;DHT22;3735;50.136;11.062;2023-05-10T14:07:07;21.40;99.90
7388;DHT22;3735;50.136;11.062;2023-05-10T14:09:32;21.70;99.90
7388;DHT22;3735;50.136;11.062;2023-05-10T14:11:58;22.00;99.90
7388;DHT22;3735;50.136;11.062;2023-05-10T14:14:24;22.30;99.90
7388;DHT22;3735;50.136;11.062;2023-05-10T14:16:50;22.50;99.90
7388;DHT22;3735;50.136;11.062;2023-05-10T14:19:16;22.80;99.90
7388;DHT22;3735;50.136;11.062;2023-05-10T14:21:41;23.20;99.90
7388;DHT22;3735;50.136;11.062;2023-05-10T14:24:08;23.50;99.90
7388;DHT22;3735;50.136;11.062;2023-05-10T14:26:34;24.00;99.90
7388;DHT22;3735;50.136;11.062;2023-05-10T14:29:00;24.40;99.90
7388;DHT22;3735;50.136;11.062;2023-05-10T14:31:25;24.40;99.90
7388;DHT22;3735;50.136;11.062;2023-05-10T14:33:52;24.50;99.90
7388;DHT22;3735;50.136;11.062;2023-05-10T14:36:18;24.40;99.90
7388;DHT22;3735;50.136;11.062;2023-05-10T14:38:44;24.40;99.90
7388;DHT22;3735;50.136;11.062;2023-05-10T14:41:09;24.30;99.90
7388;DHT22;3735;50.136;11.062;2023-05-10T14:43:39;24.20;99.90
7388;DHT22;3735;50.136;11.062;2023-05-10T14:46:05;23.90;99.90
7388;DHT22;3735;50.136;11.062;2023-05-10T14:48:31;23.60;99.90
7388;DHT22;3735;50.136;11.062;2023-05-10T14:50:56;23.30;99.90
7388;DHT22;3735;50.136;11.062;2023-05-10T14:53:22;23.00;99.90
7388;DHT22;3735;50.136;11.062;2023-05-10T14:55:48;22.50;99.90
7388;DHT22;3735;50.136;11.062;2023-05-10T14:58:14;22.10;99.90
7388;DHT22;3735;50.136;11.062;2023-05-10T15:00:40;21.80;99.90
7388;DHT22;3735;50.136;11.062;2023-05-10T15:03:06;21.40;99.90
7388;DHT22;3735;50.136;11.062;2023-05-10T15:05:32;21.10;99.90
7388;DHT22;3735;50.136;11.062;2023-05-10T15:07:57;20.70;99.90
7388;DHT22;3735;50.136;11.062;2023-05-10T15:10:23;20.20;99.90
7388;DHT22;3735;50.136;11.062;2023-05-10T15:12:50;19.70;99.90
7388;DHT22;3735;50.136;11.062;2023-05-10T15:15:15;19.30;99.90
7388;DHT22;3735;50.136;11.062;2023-05-10T15:17:41;19.00;99.90
7388;DHT22;3735;50.136;11.062;2023-05-10T15:20:07;18.60;99.90
7388;DHT22;3735;50.136;11.062;2023-05-10T15:22:33;18.20;99.90
7388;DHT22;3735;50.136;11.062;2023-05-10T15:24:59;17.80;99.90
7388;DHT22;3735;50.136;11.062;2023-05-10T15:27:25;17.40;99.90
7388;DHT22;3735;50.136;11.062;2023-05-10T15:29:52;17.20;99.90
7388;DHT22;3735;50.136;11.062;2023-05-10T15:32:18;17.00;99.90
7388;DHT22;3735;50.136;11.062;2023-05-10T15:34:44;16.90;99.90
7388;DHT22;3735;50.136;11.062;2023-05-10T15:37:10;16.80;99.90
7388;DHT22;3735;50.136;11.062;2023-05-10T15:39:35;16.70;99.90
7388;DHT22;3735;50.136;11.062;2023-05-10T15:42:01;16.60;99.90
7388;DHT22;3735;50.136;11.062;2023-05-10T15:44:28;16.40;99.90
7388;DHT22;3735;50.136;11.062;2023-05-10T15:46:54;16.20;99.90
7388;DHT22;3735;50.136;11.062;2023-05-10T15:49:19;16.00;99.90
7388;DHT22;3735;50.136;11.062;2023-05-10T15:51:45;15.70;99.90
7388;DHT22;3735;50.136;11.062;2023-05-10T15:54:11;15.50;99.90
7388;DHT22;3735;50.136;11.062;2023-05-10T15:56:37;15.40;99.90
7388;DHT22;3735;50.136;11.062;2023-05-10T15:59:02;15.20;99.90
7388;DHT22;3735;50.136;11.062;2023-05-10T16:01:30;15.00;99.90
7388;DHT22;3735;50.136;11.062;2023-05-10T16:03:57;14.80;99.90
7388;DHT22;3735;50.136;11.062;2023-05-10T16:06:22;14.60;99.90
7388;DHT22;3735;50.136;11.062;2023-05-10T16:08:48;14.40;99.90
7388;DHT22;3735;50.136;11.062;2023-05-10T16:11:14;14.30;99.90
7388;DHT22;3735;50.136;11.062;2023-05-10T16:13:39;14.20;99.90
7388;DHT22;3735;50.136;11.062;2023-05-10T16:16:05;14.00;99.90
7388;DHT22;3735;50.136;11.062;2023-05-10T16:18:33;13.90;99.90
7388;DHT22;3735;50.136;11.062;2023-05-10T16:20:59;13.80;99.90